^^
Station Historical Data
 
Daily Summary for April 24, 2017 Units:  Both    English   Metric
« Previous Day
Next Day »
Daily Weekly Monthly Yearly Custom
  Current: High: Low: Average:
Temperature: 47.1 °F /  8.4 °C 49.6 °F /  9.8 °C 47.1 °F /  8.4 °C 48.6 °F /  9.2 °C
Dew Point: 45.5 °F /  7.5 °C 48.0 °F /  8.9 °C 45.5 °F /  7.5 °C 46.8 °F /  8.2 °C
Humidity: 94% 95% 93% 94%
Wind Speed: 0.0mph /  0km/h 0.9mph /  1.4km/h - 0mph /  0km/h
Wind Gust: 0.0mph /  0km/h 2.0mph /  3.2km/h - -
WindCalm - - ENE
Pressure: 30.04 in /  1017.2 hPa 30.04 in /  1017.2 hPa 30.00 in /  1015.8 hPa -
Precipitation: 0.01 in /  0.25 mm      
Historical Graphs
 
 
Tabular Data for April 24, 2017
Time Temperature Dew Point Pressure Wind Wind Speed Wind Gust Humidity Rainfall Rate (Hourly) solar Conditions
00:02 49.6 °F /  9.8 °C 47.7 °F /  8.7 °C 30.01in /  1016.1hPa Calm   1.0mph /  1.6km/h 93% 0.00in /  0mm 0.0 W/m2
00:08 49.6 °F /  9.8 °C 47.7 °F /  8.7 °C 30.01in /  1016.1hPa Calm     93% 0.00in /  0mm 0.0 W/m2
00:14 49.6 °F /  9.8 °C 47.7 °F /  8.7 °C 30.01in /  1016.1hPa Calm     93% 0.00in /  0mm 0.0 W/m2
00:20 49.5 °F /  9.7 °C 47.5 °F /  8.6 °C 30.01in /  1016.1hPa Calm     93% 0.00in /  0mm 0.0 W/m2
00:26 49.5 °F /  9.7 °C 47.5 °F /  8.6 °C 30.01in /  1016.1hPa Calm     93% 0.00in /  0mm 0.0 W/m2
00:33 49.5 °F /  9.7 °C 47.5 °F /  8.6 °C 30.01in /  1016.1hPa Calm     93% 0.00in /  0mm 0.0 W/m2
00:39 49.5 °F /  9.7 °C 47.5 °F /  8.6 °C 30.01in /  1016.1hPa Calm     93% 0.00in /  0mm 0.0 W/m2
00:45 49.5 °F /  9.7 °C 47.8 °F /  8.8 °C 30.01in /  1016.1hPa Calm     94% 0.00in /  0mm 0.0 W/m2
00:51 49.5 °F /  9.7 °C 47.8 °F /  8.8 °C 30.01in /  1016.1hPa Calm     94% 0.00in /  0mm 0.0 W/m2
00:57 49.5 °F /  9.7 °C 47.8 °F /  8.8 °C 30.01in /  1016.1hPa Calm     94% 0.00in /  0mm 0.0 W/m2
01:03 49.5 °F /  9.7 °C 47.8 °F /  8.8 °C 30.01in /  1016.1hPa Calm     94% 0.00in /  0mm 0.0 W/m2
01:09 49.6 °F /  9.8 °C 48.0 °F /  8.9 °C 30.01in /  1016.1hPa Calm     94% 0.00in /  0mm 0.0 W/m2
01:16 49.6 °F /  9.8 °C 47.7 °F /  8.7 °C 30.01in /  1016.1hPa Calm   1.0mph /  1.6km/h 93% 0.00in /  0mm 0.0 W/m2
01:22 49.6 °F /  9.8 °C 47.7 °F /  8.7 °C 30.01in /  1016.1hPa Calm   2.0mph /  3.2km/h 93% 0.00in /  0mm 0.0 W/m2
01:28 49.5 °F /  9.7 °C 47.5 °F /  8.6 °C 30.00in /  1015.8hPa Calm   1.0mph /  1.6km/h 93% 0.00in /  0mm 0.0 W/m2
01:34 49.5 °F /  9.7 °C 47.5 °F /  8.6 °C 30.00in /  1015.8hPa Calm   2.0mph /  3.2km/h 93% 0.00in /  0mm 0.0 W/m2
01:40 49.6 °F /  9.8 °C 47.7 °F /  8.7 °C 30.01in /  1016.1hPa Calm     93% 0.00in /  0mm 0.0 W/m2
01:46 49.6 °F /  9.8 °C 47.7 °F /  8.7 °C 30.00in /  1015.8hPa NE 0.9mph /  1.4km/h 1.0mph /  1.6km/h 93% 0.00in /  0mm 0.0 W/m2
01:52 49.6 °F /  9.8 °C 47.7 °F /  8.7 °C 30.00in /  1015.8hPa Calm   1.0mph /  1.6km/h 93% 0.00in /  0mm 0.0 W/m2
01:59 49.6 °F /  9.8 °C 47.7 °F /  8.7 °C 30.00in /  1015.8hPa Calm   2.0mph /  3.2km/h 93% 0.00in /  0mm 0.0 W/m2
02:05 49.6 °F /  9.8 °C 47.7 °F /  8.7 °C 30.00in /  1015.8hPa Calm   2.0mph /  3.2km/h 93% 0.00in /  0mm 0.0 W/m2
02:11 49.6 °F /  9.8 °C 47.7 °F /  8.7 °C 30.00in /  1015.8hPa Calm     93% 0.00in /  0mm 0.0 W/m2
02:17 49.5 °F /  9.7 °C 47.5 °F /  8.6 °C 30.00in /  1015.8hPa Calm     93% 0.00in /  0mm 0.0 W/m2
02:23 49.5 °F /  9.7 °C 47.5 °F /  8.6 °C 30.00in /  1015.8hPa Calm     93% 0.00in /  0mm 0.0 W/m2
02:29 49.5 °F /  9.7 °C 47.5 °F /  8.6 °C 30.00in /  1015.8hPa Calm     93% 0.00in /  0mm 0.0 W/m2
02:36 49.3 °F /  9.6 °C 47.3 °F /  8.5 °C 30.01in /  1016.1hPa Calm     93% 0.00in /  0mm 0.0 W/m2
02:42 49.3 °F /  9.6 °C 47.3 °F /  8.5 °C 30.00in /  1015.8hPa Calm     93% 0.00in /  0mm 0.0 W/m2
02:48 48.9 °F /  9.4 °C 46.9 °F /  8.3 °C 30.01in /  1016.1hPa Calm     93% 0.00in /  0mm 0.0 W/m2
02:54 48.7 °F /  9.3 °C 46.8 °F /  8.2 °C 30.01in /  1016.1hPa Calm     93% 0.00in /  0mm 0.0 W/m2
03:00 48.7 °F /  9.3 °C 46.8 °F /  8.2 °C 30.01in /  1016.1hPa Calm     93% 0.00in /  0mm 0.0 W/m2
03:06 48.6 °F /  9.2 °C 46.6 °F /  8.1 °C 30.01in /  1016.1hPa Calm     93% 0.00in /  0mm 0.0 W/m2
03:12 48.6 °F /  9.2 °C 46.6 °F /  8.1 °C 30.01in /  1016.1hPa Calm     93% 0.00in /  0mm 0.0 W/m2
03:19 48.4 °F /  9.1 °C 46.4 °F /  8 °C 30.01in /  1016.1hPa Calm   1.0mph /  1.6km/h 93% 0.00in /  0mm 0.0 W/m2
03:25 48.4 °F /  9.1 °C 46.4 °F /  8 °C 30.01in /  1016.1hPa Calm     93% 0.00in /  0mm 0.0 W/m2
03:31 48.4 °F /  9.1 °C 46.8 °F /  8.2 °C 30.01in /  1016.1hPa Calm     94% 0.00in /  0mm 0.0 W/m2
03:37 48.4 °F /  9.1 °C 46.8 °F /  8.2 °C 30.01in /  1016.1hPa Calm   1.0mph /  1.6km/h 94% 0.00in /  0mm 0.0 W/m2
03:43 48.2 °F /  9 °C 46.6 °F /  8.1 °C 30.01in /  1016.1hPa Calm     94% 0.00in /  0mm 0.0 W/m2
03:49 48.2 °F /  9 °C 46.6 °F /  8.1 °C 30.01in /  1016.1hPa Calm     94% 0.00in /  0mm 0.0 W/m2
03:55 48.0 °F /  8.9 °C 46.4 °F /  8 °C 30.01in /  1016.1hPa Calm     94% 0.00in /  0mm 0.0 W/m2
04:02 48.0 °F /  8.9 °C 46.0 °F /  7.8 °C 30.01in /  1016.1hPa Calm     93% 0.00in /  0mm 0.0 W/m2
04:08 47.8 °F /  8.8 °C 46.2 °F /  7.9 °C 30.01in /  1016.1hPa Calm     94% 0.00in /  0mm 0.0 W/m2
04:14 47.8 °F /  8.8 °C 45.9 °F /  7.7 °C 30.01in /  1016.1hPa Calm     93% 0.00in /  0mm 0.0 W/m2
04:20 47.7 °F /  8.7 °C 45.7 °F /  7.6 °C 30.01in /  1016.1hPa Calm     93% 0.00in /  0mm 0.0 W/m2
04:26 47.7 °F /  8.7 °C 46.0 °F /  7.8 °C 30.01in /  1016.1hPa Calm     94% 0.00in /  0mm 0.0 W/m2
04:32 47.5 °F /  8.6 °C 45.9 °F /  7.7 °C 30.02in /  1016.5hPa Calm     94% 0.00in /  0mm 0.0 W/m2
04:39 47.5 °F /  8.6 °C 45.9 °F /  7.7 °C 30.02in /  1016.5hPa Calm     94% 0.00in /  0mm 0.0 W/m2
04:45 47.5 °F /  8.6 °C 45.9 °F /  7.7 °C 30.02in /  1016.5hPa Calm     94% 0.00in /  0mm 0.0 W/m2
04:51 47.5 °F /  8.6 °C 45.9 °F /  7.7 °C 30.02in /  1016.5hPa Calm     94% 0.00in /  0mm 0.0 W/m2
04:57 47.5 °F /  8.6 °C 45.9 °F /  7.7 °C 30.02in /  1016.5hPa Calm     94% 0.00in /  0mm 0.0 W/m2
05:03 47.5 °F /  8.6 °C 45.9 °F /  7.7 °C 30.02in /  1016.5hPa Calm     94% 0.00in /  0mm 0.0 W/m2
05:09 47.3 °F /  8.5 °C 45.7 °F /  7.6 °C 30.02in /  1016.5hPa Calm     94% 0.00in /  0mm 0.0 W/m2
05:15 47.3 °F /  8.5 °C 45.7 °F /  7.6 °C 30.02in /  1016.5hPa Calm     94% 0.00in /  0mm 0.0 W/m2
05:22 47.3 °F /  8.5 °C 45.7 °F /  7.6 °C 30.02in /  1016.5hPa Calm   2.0mph /  3.2km/h 94% 0.00in /  0mm 0.0 W/m2
05:28 47.5 °F /  8.6 °C 46.0 °F /  7.8 °C 30.02in /  1016.5hPa Calm     95% 0.00in /  0mm 0.0 W/m2
05:34 47.5 °F /  8.6 °C 45.9 °F /  7.7 °C 30.02in /  1016.5hPa Calm     94% 0.01in /  0.25mm 0.0 W/m2
05:42 47.5 °F /  8.6 °C 46.0 °F /  7.8 °C 30.02in /  1016.5hPa East 0.9mph /  1.4km/h 1.0mph /  1.6km/h 95% 0.01in /  0.25mm 0.0 W/m2
05:48 47.5 °F /  8.6 °C 46.0 °F /  7.8 °C 30.03in /  1016.8hPa Calm     95% 0.01in /  0.25mm 0.0 W/m2
05:54 47.5 °F /  8.6 °C 46.0 °F /  7.8 °C 30.03in /  1016.8hPa Calm     95% 0.01in /  0.25mm 0.0 W/m2
06:03 47.5 °F /  8.6 °C 46.0 °F /  7.8 °C 30.03in /  1016.8hPa Calm     95% 0.01in /  0.25mm 0.0 W/m2
06:09 47.5 °F /  8.6 °C 46.0 °F /  7.8 °C 30.03in /  1016.8hPa Calm     95% 0.01in /  0.25mm 0.0 W/m2
06:15 47.5 °F /  8.6 °C 46.0 °F /  7.8 °C 30.04in /  1017.2hPa Calm     95% 0.01in /  0.25mm 5.0 W/m2
06:21 47.1 °F /  8.4 °C 45.5 °F /  7.5 °C 30.04in /  1017.2hPa Calm     94% 0.01in /  0.25mm 7.0 W/m2
Olympia, Windhoek, Namibia
Compliments of Weather Underground - 3.25 mb